sensor_id;sensor_type;location;lat;lon;timestamp;P1;durP1;ratioP1;P2;durP2;ratioP2
53545;SDS011;39432;51.902;10.844;2023-08-06T00:00:09;3.80;;;1.45;;
53545;SDS011;39432;51.902;10.844;2023-08-06T00:02:40;2.95;;;1.60;;
53545;SDS011;39432;51.902;10.844;2023-08-06T00:05:10;2.42;;;1.58;;
53545;SDS011;39432;51.902;10.844;2023-08-06T00:07:44;3.47;;;1.50;;
53545;SDS011;39432;51.902;10.844;2023-08-06T00:10:17;2.88;;;1.10;;
53545;SDS011;39432;51.902;10.844;2023-08-06T00:12:47;4.28;;;1.60;;
53545;SDS011;39432;51.902;10.844;2023-08-06T00:15:17;2.63;;;1.38;;
53545;SDS011;39432;51.902;10.844;2023-08-06T00:17:47;2.70;;;1.50;;
53545;SDS011;39432;51.902;10.844;2023-08-06T00:20:17;2.53;;;1.38;;
53545;SDS011;39432;51.902;10.844;2023-08-06T00:22:47;9.10;;;2.17;;
53545;SDS011;39432;51.902;10.844;2023-08-06T00:25:20;7.28;;;1.80;;
53545;SDS011;39432;51.902;10.844;2023-08-06T00:27:50;2.60;;;1.30;;
53545;SDS011;39432;51.902;10.844;2023-08-06T00:30:20;4.55;;;1.90;;
53545;SDS011;39432;51.902;10.844;2023-08-06T00:32:50;3.28;;;1.77;;
53545;SDS011;39432;51.902;10.844;2023-08-06T00:35:20;3.80;;;1.70;;
53545;SDS011;39432;51.902;10.844;2023-08-06T00:37:50;5.43;;;1.70;;
53545;SDS011;39432;51.902;10.844;2023-08-06T00:40:23;4.75;;;1.63;;
53545;SDS011;39432;51.902;10.844;2023-08-06T00:42:55;2.85;;;1.33;;
53545;SDS011;39432;51.902;10.844;2023-08-06T00:45:25;4.32;;;1.77;;
53545;SDS011;39432;51.902;10.844;2023-08-06T00:47:56;4.03;;;2.00;;
53545;SDS011;39432;51.902;10.844;2023-08-06T00:50:27;4.15;;;2.03;;
53545;SDS011;39432;51.902;10.844;2023-08-06T00:52:57;3.13;;;1.50;;
53545;SDS011;39432;51.902;10.844;2023-08-06T00:55:31;6.38;;;1.98;;
53545;SDS011;39432;51.902;10.844;2023-08-06T00:58:02;3.80;;;1.92;;
53545;SDS011;39432;51.902;10.844;2023-08-06T01:00:33;2.75;;;1.58;;
53545;SDS011;39432;51.902;10.844;2023-08-06T01:03:03;3.15;;;1.50;;
53545;SDS011;39432;51.902;10.844;2023-08-06T01:05:33;3.50;;;1.58;;
53545;SDS011;39432;51.902;10.844;2023-08-06T01:08:07;4.47;;;1.30;;
53545;SDS011;39432;51.902;10.844;2023-08-06T01:10:50;1.95;;;1.40;;
53545;SDS011;39432;51.902;10.844;2023-08-06T01:13:31;4.00;;;1.30;;
53545;SDS011;39432;51.902;10.844;2023-08-06T01:16:04;1.90;;;1.05;;
53545;SDS011;39432;51.902;10.844;2023-08-06T01:18:36;6.50;;;1.73;;
53545;SDS011;39432;51.902;10.844;2023-08-06T01:21:11;2.70;;;1.45;;
53545;SDS011;39432;51.902;10.844;2023-08-06T01:23:41;3.20;;;1.38;;
53545;SDS011;39432;51.902;10.844;2023-08-06T01:26:14;3.75;;;1.50;;
53545;SDS011;39432;51.902;10.844;2023-08-06T01:31:25;14.57;;;1.45;;
53545;SDS011;39432;51.902;10.844;2023-08-06T01:33:57;12.13;;;1.85;;
53545;SDS011;39432;51.902;10.844;2023-08-06T01:36:31;4.65;;;1.58;;
53545;SDS011;39432;51.902;10.844;2023-08-06T01:39:02;4.50;;;1.50;;
53545;SDS011;39432;51.902;10.844;2023-08-06T01:41:34;6.32;;;1.52;;
53545;SDS011;39432;51.902;10.844;2023-08-06T01:44:04;2.60;;;1.55;;
53545;SDS011;39432;51.902;10.844;2023-08-06T01:46:34;2.72;;;1.38;;
53545;SDS011;39432;51.902;10.844;2023-08-06T01:49:04;4.30;;;1.40;;
53545;SDS011;39432;51.902;10.844;2023-08-06T01:51:36;6.03;;;1.88;;
53545;SDS011;39432;51.902;10.844;2023-08-06T01:54:06;4.20;;;1.95;;
53545;SDS011;39432;51.902;10.844;2023-08-06T01:56:37;3.80;;;1.88;;
53545;SDS011;39432;51.902;10.844;2023-08-06T01:59:07;5.90;;;1.70;;
53545;SDS011;39432;51.902;10.844;2023-08-06T02:01:37;3.97;;;1.67;;
53545;SDS011;39432;51.902;10.844;2023-08-06T02:04:08;4.53;;;1.60;;
53545;SDS011;39432;51.902;10.844;2023-08-06T02:06:40;2.92;;;1.73;;
53545;SDS011;39432;51.902;10.844;2023-08-06T02:09:10;3.60;;;1.90;;
53545;SDS011;39432;51.902;10.844;2023-08-06T02:11:41;6.65;;;1.90;;
53545;SDS011;39432;51.902;10.844;2023-08-06T02:14:11;2.60;;;1.60;;
53545;SDS011;39432;51.902;10.844;2023-08-06T02:16:41;2.88;;;1.60;;
53545;SDS011;39432;51.902;10.844;2023-08-06T02:19:11;3.05;;;1.60;;
53545;SDS011;39432;51.902;10.844;2023-08-06T02:21:44;2.78;;;1.80;;
53545;SDS011;39432;51.902;10.844;2023-08-06T02:24:14;7.25;;;2.05;;
53545;SDS011;39432;51.902;10.844;2023-08-06T02:26:44;2.60;;;1.85;;
53545;SDS011;39432;51.902;10.844;2023-08-06T02:29:16;5.75;;;1.77;;
53545;SDS011;39432;51.902;10.844;2023-08-06T02:31:46;3.00;;;1.67;;
53545;SDS011;39432;51.902;10.844;2023-08-06T02:34:17;4.72;;;1.30;;
53545;SDS011;39432;51.902;10.844;2023-08-06T02:36:50;5.60;;;1.63;;
53545;SDS011;39432;51.902;10.844;2023-08-06T02:39:19;4.97;;;1.92;;
53545;SDS011;39432;51.902;10.844;2023-08-06T02:41:50;6.40;;;1.60;;
53545;SDS011;39432;51.902;10.844;2023-08-06T02:44:21;5.93;;;1.90;;
53545;SDS011;39432;51.902;10.844;2023-08-06T02:46:51;2.92;;;2.00;;
53545;SDS011;39432;51.902;10.844;2023-08-06T02:49:21;3.65;;;2.10;;
53545;SDS011;39432;51.902;10.844;2023-08-06T02:51:53;4.60;;;1.40;;
53545;SDS011;39432;51.902;10.844;2023-08-06T02:54:23;3.30;;;1.55;;
53545;SDS011;39432;51.902;10.844;2023-08-06T02:56:54;5.30;;;1.65;;
53545;SDS011;39432;51.902;10.844;2023-08-06T02:59:28;2.85;;;1.40;;
53545;SDS011;39432;51.902;10.844;2023-08-06T03:02:04;4.47;;;1.77;;
53545;SDS011;39432;51.902;10.844;2023-08-06T03:04:46;5.22;;;2.30;;
53545;SDS011;39432;51.902;10.844;2023-08-06T03:07:22;5.60;;;1.88;;
53545;SDS011;39432;51.902;10.844;2023-08-06T03:09:57;2.30;;;1.52;;
53545;SDS011;39432;51.902;10.844;2023-08-06T03:12:28;5.57;;;1.63;;
53545;SDS011;39432;51.902;10.844;2023-08-06T03:15:00;2.97;;;1.60;;
53545;SDS011;39432;51.902;10.844;2023-08-06T03:17:30;3.40;;;1.67;;
53545;SDS011;39432;51.902;10.844;2023-08-06T03:20:02;2.38;;;1.52;;
53545;SDS011;39432;51.902;10.844;2023-08-06T03:22:38;5.93;;;1.73;;
53545;SDS011;39432;51.902;10.844;2023-08-06T03:25:08;2.25;;;1.80;;
53545;SDS011;39432;51.902;10.844;2023-08-06T03:27:41;4.68;;;1.95;;
53545;SDS011;39432;51.902;10.844;2023-08-06T03:30:13;3.47;;;1.70;;
53545;SDS011;39432;51.902;10.844;2023-08-06T03:32:43;2.67;;;1.77;;
53545;SDS011;39432;51.902;10.844;2023-08-06T03:35:16;2.85;;;1.55;;
53545;SDS011;39432;51.902;10.844;2023-08-06T03:37:48;8.27;;;1.80;;
53545;SDS011;39432;51.902;10.844;2023-08-06T03:40:19;4.18;;;2.25;;
53545;SDS011;39432;51.902;10.844;2023-08-06T03:42:48;5.00;;;2.25;;
53545;SDS011;39432;51.902;10.844;2023-08-06T03:45:18;4.72;;;1.75;;
53545;SDS011;39432;51.902;10.844;2023-08-06T03:47:48;12.60;;;2.75;;
53545;SDS011;39432;51.902;10.844;2023-08-06T03:50:18;4.88;;;1.77;;
53545;SDS011;39432;51.902;10.844;2023-08-06T03:52:51;4.72;;;1.90;;
53545;SDS011;39432;51.902;10.844;2023-08-06T03:55:21;3.60;;;1.60;;
53545;SDS011;39432;51.902;10.844;2023-08-06T03:57:51;4.10;;;2.05;;
53545;SDS011;39432;51.902;10.844;2023-08-06T04:00:21;4.13;;;2.00;;
53545;SDS011;39432;51.902;10.844;2023-08-06T04:02:52;8.05;;;2.55;;
53545;SDS011;39432;51.902;10.844;2023-08-06T04:05:22;4.68;;;2.00;;
53545;SDS011;39432;51.902;10.844;2023-08-06T04:07:55;3.67;;;2.00;;
53545;SDS011;39432;51.902;10.844;2023-08-06T04:10:26;5.88;;;2.67;;
53545;SDS011;39432;51.902;10.844;2023-08-06T04:12:56;6.10;;;2.30;;
53545;SDS011;39432;51.902;10.844;2023-08-06T04:15:26;5.30;;;2.13;;
53545;SDS011;39432;51.902;10.844;2023-08-06T04:17:56;10.02;;;2.60;;
53545;SDS011;39432;51.902;10.844;2023-08-06T04:20:26;5.13;;;2.58;;
53545;SDS011;39432;51.902;10.844;2023-08-06T04:23:04;5.05;;;2.80;;
53545;SDS011;39432;51.902;10.844;2023-08-06T04:25:36;3.38;;;1.80;;
53545;SDS011;39432;51.902;10.844;2023-08-06T04:28:06;7.40;;;2.20;;
53545;SDS011;39432;51.902;10.844;2023-08-06T04:30:37;4.97;;;2.75;;
53545;SDS011;39432;51.902;10.844;2023-08-06T04:33:08;9.85;;;3.28;;
53545;SDS011;39432;51.902;10.844;2023-08-06T04:35:38;4.20;;;2.70;;
53545;SDS011;39432;51.902;10.844;2023-08-06T04:38:11;5.93;;;3.25;;
53545;SDS011;39432;51.902;10.844;2023-08-06T04:40:41;7.32;;;3.60;;
53545;SDS011;39432;51.902;10.844;2023-08-06T04:43:11;11.73;;;4.40;;
53545;SDS011;39432;51.902;10.844;2023-08-06T04:45:45;6.93;;;4.00;;
53545;SDS011;39432;51.902;10.844;2023-08-06T04:48:15;13.73;;;4.32;;
53545;SDS011;39432;51.902;10.844;2023-08-06T04:50:46;11.27;;;4.40;;
53545;SDS011;39432;51.902;10.844;2023-08-06T04:53:19;8.98;;;5.68;;
53545;SDS011;39432;51.902;10.844;2023-08-06T04:55:49;8.35;;;3.65;;
53545;SDS011;39432;51.902;10.844;2023-08-06T04:58:19;8.20;;;4.90;;
53545;SDS011;39432;51.902;10.844;2023-08-06T05:00:49;10.15;;;5.07;;
53545;SDS011;39432;51.902;10.844;2023-08-06T05:03:19;11.95;;;6.63;;
53545;SDS011;39432;51.902;10.844;2023-08-06T05:05:49;13.82;;;5.55;;
53545;SDS011;39432;51.902;10.844;2023-08-06T05:08:22;6.70;;;4.72;;
53545;SDS011;39432;51.902;10.844;2023-08-06T05:10:52;7.65;;;4.80;;
53545;SDS011;39432;51.902;10.844;2023-08-06T05:13:22;6.95;;;4.65;;
53545;SDS011;39432;51.902;10.844;2023-08-06T05:15:53;7.47;;;4.10;;
53545;SDS011;39432;51.902;10.844;2023-08-06T05:18:23;4.78;;;3.20;;
53545;SDS011;39432;51.902;10.844;2023-08-06T05:20:53;5.35;;;2.53;;
53545;SDS011;39432;51.902;10.844;2023-08-06T05:23:26;5.95;;;2.47;;
53545;SDS011;39432;51.902;10.844;2023-08-06T05:25:56;5.28;;;2.75;;
53545;SDS011;39432;51.902;10.844;2023-08-06T05:28:26;6.05;;;3.47;;
53545;SDS011;39432;51.902;10.844;2023-08-06T05:30:56;11.15;;;3.97;;
53545;SDS011;39432;51.902;10.844;2023-08-06T05:33:26;5.47;;;3.05;;
53545;SDS011;39432;51.902;10.844;2023-08-06T05:35:56;7.10;;;3.00;;
53545;SDS011;39432;51.902;10.844;2023-08-06T05:38:29;4.63;;;3.17;;
53545;SDS011;39432;51.902;10.844;2023-08-06T05:40:59;4.32;;;3.05;;
53545;SDS011;39432;51.902;10.844;2023-08-06T05:43:30;4.10;;;2.80;;
53545;SDS011;39432;51.902;10.844;2023-08-06T05:46:00;3.58;;;2.40;;
53545;SDS011;39432;51.902;10.844;2023-08-06T05:48:31;4.93;;;2.40;;
53545;SDS011;39432;51.902;10.844;2023-08-06T05:51:01;5.80;;;2.10;;
53545;SDS011;39432;51.902;10.844;2023-08-06T05:53:33;4.20;;;2.10;;
53545;SDS011;39432;51.902;10.844;2023-08-06T05:56:03;4.38;;;1.80;;
53545;SDS011;39432;51.902;10.844;2023-08-06T05:58:33;4.25;;;2.20;;
53545;SDS011;39432;51.902;10.844;2023-08-06T06:01:03;2.78;;;1.85;;
53545;SDS011;39432;51.902;10.844;2023-08-06T06:03:33;3.88;;;1.90;;
53545;SDS011;39432;51.902;10.844;2023-08-06T06:06:03;9.80;;;2.22;;
53545;SDS011;39432;51.902;10.844;2023-08-06T06:08:35;3.80;;;1.65;;
53545;SDS011;39432;51.902;10.844;2023-08-06T06:11:05;6.22;;;2.13;;
53545;SDS011;39432;51.902;10.844;2023-08-06T06:13:36;3.35;;;2.00;;
53545;SDS011;39432;51.902;10.844;2023-08-06T06:16:06;5.78;;;2.00;;
53545;SDS011;39432;51.902;10.844;2023-08-06T06:18:36;4.18;;;1.90;;
53545;SDS011;39432;51.902;10.844;2023-08-06T06:21:06;3.00;;;1.80;;
53545;SDS011;39432;51.902;10.844;2023-08-06T06:23:38;4.78;;;1.90;;
53545;SDS011;39432;51.902;10.844;2023-08-06T06:26:08;3.55;;;2.10;;
53545;SDS011;39432;51.902;10.844;2023-08-06T06:28:39;7.20;;;1.75;;
53545;SDS011;39432;51.902;10.844;2023-08-06T06:31:09;4.03;;;1.67;;
53545;SDS011;39432;51.902;10.844;2023-08-06T06:33:40;2.28;;;1.50;;
53545;SDS011;39432;51.902;10.844;2023-08-06T06:36:10;3.13;;;1.50;;
53545;SDS011;39432;51.902;10.844;2023-08-06T06:38:43;6.43;;;1.52;;
53545;SDS011;39432;51.902;10.844;2023-08-06T06:41:13;7.13;;;1.85;;
53545;SDS011;39432;51.902;10.844;2023-08-06T06:43:42;3.42;;;1.88;;
53545;SDS011;39432;51.902;10.844;2023-08-06T06:46:12;6.78;;;1.60;;
53545;SDS011;39432;51.902;10.844;2023-08-06T06:48:42;3.55;;;1.70;;
53545;SDS011;39432;51.902;10.844;2023-08-06T06:51:12;3.63;;;1.67;;
53545;SDS011;39432;51.902;10.844;2023-08-06T06:53:45;4.38;;;1.55;;
53545;SDS011;39432;51.902;10.844;2023-08-06T06:56:15;4.05;;;1.40;;
53545;SDS011;39432;51.902;10.844;2023-08-06T06:58:45;5.22;;;1.58;;
53545;SDS011;39432;51.902;10.844;2023-08-06T07:01:18;3.92;;;1.77;;
53545;SDS011;39432;51.902;10.844;2023-08-06T07:03:48;5.25;;;1.25;;
53545;SDS011;39432;51.902;10.844;2023-08-06T07:06:18;2.30;;;1.30;;
53545;SDS011;39432;51.902;10.844;2023-08-06T07:08:51;2.05;;;1.15;;
53545;SDS011;39432;51.902;10.844;2023-08-06T07:11:21;3.05;;;1.42;;
53545;SDS011;39432;51.902;10.844;2023-08-06T07:13:55;4.85;;;1.30;;
53545;SDS011;39432;51.902;10.844;2023-08-06T07:16:26;6.18;;;1.70;;
53545;SDS011;39432;51.902;10.844;2023-08-06T07:18:56;4.28;;;1.60;;
53545;SDS011;39432;51.902;10.844;2023-08-06T07:21:26;4.85;;;1.40;;
53545;SDS011;39432;51.902;10.844;2023-08-06T07:23:59;1.67;;;1.17;;
53545;SDS011;39432;51.902;10.844;2023-08-06T07:26:29;2.30;;;1.20;;
53545;SDS011;39432;51.902;10.844;2023-08-06T07:28:59;3.35;;;1.30;;
53545;SDS011;39432;51.902;10.844;2023-08-06T07:31:29;3.22;;;1.65;;
53545;SDS011;39432;51.902;10.844;2023-08-06T07:33:59;3.47;;;1.42;;
53545;SDS011;39432;51.902;10.844;2023-08-06T07:36:29;3.10;;;1.40;;
53545;SDS011;39432;51.902;10.844;2023-08-06T07:39:02;5.68;;;1.40;;
53545;SDS011;39432;51.902;10.844;2023-08-06T07:41:33;3.63;;;1.40;;
53545;SDS011;39432;51.902;10.844;2023-08-06T07:44:04;3.33;;;1.35;;
53545;SDS011;39432;51.902;10.844;2023-08-06T07:46:34;2.10;;;1.30;;
53545;SDS011;39432;51.902;10.844;2023-08-06T07:49:05;3.08;;;1.23;;
53545;SDS011;39432;51.902;10.844;2023-08-06T07:51:36;4.47;;;1.10;;
53545;SDS011;39432;51.902;10.844;2023-08-06T07:54:08;3.20;;;1.30;;
53545;SDS011;39432;51.902;10.844;2023-08-06T07:56:38;2.88;;;1.50;;
53545;SDS011;39432;51.902;10.844;2023-08-06T07:59:08;1.58;;;0.93;;
53545;SDS011;39432;51.902;10.844;2023-08-06T08:01:38;3.05;;;1.25;;
53545;SDS011;39432;51.902;10.844;2023-08-06T08:04:08;3.33;;;1.20;;
53545;SDS011;39432;51.902;10.844;2023-08-06T08:06:38;3.10;;;1.23;;
53545;SDS011;39432;51.902;10.844;2023-08-06T08:09:11;3.90;;;1.05;;
53545;SDS011;39432;51.902;10.844;2023-08-06T08:11:41;3.15;;;1.23;;
53545;SDS011;39432;51.902;10.844;2023-08-06T08:14:11;2.72;;;1.42;;
53545;SDS011;39432;51.902;10.844;2023-08-06T08:16:41;4.47;;;1.40;;
53545;SDS011;39432;51.902;10.844;2023-08-06T08:19:11;3.10;;;1.15;;
53545;SDS011;39432;51.902;10.844;2023-08-06T08:21:41;4.95;;;1.25;;
53545;SDS011;39432;51.902;10.844;2023-08-06T08:24:14;3.03;;;1.20;;
53545;SDS011;39432;51.902;10.844;2023-08-06T08:26:46;3.22;;;0.95;;
53545;SDS011;39432;51.902;10.844;2023-08-06T08:29:16;6.95;;;1.00;;
53545;SDS011;39432;51.902;10.844;2023-08-06T08:31:46;3.28;;;0.93;;
53545;SDS011;39432;51.902;10.844;2023-08-06T08:34:17;3.10;;;0.70;;
53545;SDS011;39432;51.902;10.844;2023-08-06T08:36:47;1.73;;;0.93;;
53545;SDS011;39432;51.902;10.844;2023-08-06T08:39:19;1.80;;;1.30;;
53545;SDS011;39432;51.902;10.844;2023-08-06T08:41:49;3.28;;;1.10;;
53545;SDS011;39432;51.902;10.844;2023-08-06T08:44:20;2.20;;;0.98;;
53545;SDS011;39432;51.902;10.844;2023-08-06T08:46:54;1.73;;;0.90;;
53545;SDS011;39432;51.902;10.844;2023-08-06T08:49:25;1.00;;;0.65;;
53545;SDS011;39432;51.902;10.844;2023-08-06T08:51:57;1.13;;;0.70;;
53545;SDS011;39432;51.902;10.844;2023-08-06T08:54:31;1.85;;;0.80;;
53545;SDS011;39432;51.902;10.844;2023-08-06T08:57:02;3.63;;;1.02;;
53545;SDS011;39432;51.902;10.844;2023-08-06T08:59:33;1.92;;;0.70;;
53545;SDS011;39432;51.902;10.844;2023-08-06T09:02:03;2.05;;;0.90;;
53545;SDS011;39432;51.902;10.844;2023-08-06T09:04:34;2.88;;;0.85;;
53545;SDS011;39432;51.902;10.844;2023-08-06T09:07:05;2.95;;;0.82;;
53545;SDS011;39432;51.902;10.844;2023-08-06T09:09:40;2.15;;;0.82;;
53545;SDS011;39432;51.902;10.844;2023-08-06T09:12:14;2.92;;;0.90;;
53545;SDS011;39432;51.902;10.844;2023-08-06T09:14:45;1.88;;;0.95;;
53545;SDS011;39432;51.902;10.844;2023-08-06T09:17:16;1.13;;;0.70;;
53545;SDS011;39432;51.902;10.844;2023-08-06T09:19:47;1.73;;;0.70;;
53545;SDS011;39432;51.902;10.844;2023-08-06T09:22:17;1.50;;;0.75;;
53545;SDS011;39432;51.902;10.844;2023-08-06T09:24:50;1.10;;;0.77;;
53545;SDS011;39432;51.902;10.844;2023-08-06T09:27:20;1.35;;;0.60;;
53545;SDS011;39432;51.902;10.844;2023-08-06T09:29:52;0.80;;;0.60;;
53545;SDS011;39432;51.902;10.844;2023-08-06T09:32:22;1.83;;;0.80;;
53545;SDS011;39432;51.902;10.844;2023-08-06T09:34:55;1.90;;;0.80;;
53545;SDS011;39432;51.902;10.844;2023-08-06T09:37:35;8.63;;;1.17;;
53545;SDS011;39432;51.902;10.844;2023-08-06T09:40:19;2.58;;;0.70;;
53545;SDS011;39432;51.902;10.844;2023-08-06T09:42:54;1.77;;;0.80;;
53545;SDS011;39432;51.902;10.844;2023-08-06T09:45:28;2.22;;;0.70;;
53545;SDS011;39432;51.902;10.844;2023-08-06T09:48:00;1.40;;;0.73;;
53545;SDS011;39432;51.902;10.844;2023-08-06T09:50:33;1.42;;;0.80;;
53545;SDS011;39432;51.902;10.844;2023-08-06T09:53:05;4.93;;;0.80;;
53545;SDS011;39432;51.902;10.844;2023-08-06T09:55:39;2.25;;;1.00;;
53545;SDS011;39432;51.902;10.844;2023-08-06T09:58:09;1.52;;;0.70;;
53545;SDS011;39432;51.902;10.844;2023-08-06T10:00:41;1.75;;;0.77;;
53545;SDS011;39432;51.902;10.844;2023-08-06T10:03:11;3.13;;;0.90;;
53545;SDS011;39432;51.902;10.844;2023-08-06T10:05:44;1.13;;;0.75;;
53545;SDS011;39432;51.902;10.844;2023-08-06T10:08:15;1.27;;;0.70;;
53545;SDS011;39432;51.902;10.844;2023-08-06T10:10:47;2.85;;;0.65;;
53545;SDS011;39432;51.902;10.844;2023-08-06T10:15:51;2.00;;;0.95;;
53545;SDS011;39432;51.902;10.844;2023-08-06T10:18:22;2.78;;;0.80;;
53545;SDS011;39432;51.902;10.844;2023-08-06T10:20:52;3.53;;;0.90;;
53545;SDS011;39432;51.902;10.844;2023-08-06T10:23:31;2.78;;;0.80;;
53545;SDS011;39432;51.902;10.844;2023-08-06T10:26:07;2.92;;;1.60;;
53545;SDS011;39432;51.902;10.844;2023-08-06T10:28:39;1.65;;;0.90;;
53545;SDS011;39432;51.902;10.844;2023-08-06T10:31:09;2.65;;;1.00;;
53545;SDS011;39432;51.902;10.844;2023-08-06T10:33:42;3.22;;;0.80;;
53545;SDS011;39432;51.902;10.844;2023-08-06T10:36:13;1.95;;;0.90;;
53545;SDS011;39432;51.902;10.844;2023-08-06T10:38:44;1.83;;;0.80;;
53545;SDS011;39432;51.902;10.844;2023-08-06T10:41:21;1.63;;;0.60;;
53545;SDS011;39432;51.902;10.844;2023-08-06T10:43:57;2.08;;;1.00;;
53545;SDS011;39432;51.902;10.844;2023-08-06T10:46:35;2.47;;;1.10;;
53545;SDS011;39432;51.902;10.844;2023-08-06T10:49:06;1.65;;;0.70;;
53545;SDS011;39432;51.902;10.844;2023-08-06T10:51:37;1.50;;;0.63;;
53545;SDS011;39432;51.902;10.844;2023-08-06T10:54:07;1.40;;;0.75;;
53545;SDS011;39432;51.902;10.844;2023-08-06T10:56:41;4.13;;;1.08;;
53545;SDS011;39432;51.902;10.844;2023-08-06T10:59:14;1.30;;;0.60;;
53545;SDS011;39432;51.902;10.844;2023-08-06T11:01:44;3.65;;;0.90;;
53545;SDS011;39432;51.902;10.844;2023-08-06T11:04:15;2.80;;;1.00;;
53545;SDS011;39432;51.902;10.844;2023-08-06T11:06:45;2.17;;;0.95;;
53545;SDS011;39432;51.902;10.844;2023-08-06T11:09:21;1.10;;;0.80;;
53545;SDS011;39432;51.902;10.844;2023-08-06T11:11:54;1.80;;;0.93;;
53545;SDS011;39432;51.902;10.844;2023-08-06T11:14:24;1.73;;;1.00;;
53545;SDS011;39432;51.902;10.844;2023-08-06T11:16:54;3.55;;;1.00;;
53545;SDS011;39432;51.902;10.844;2023-08-06T11:19:24;2.38;;;0.90;;
53545;SDS011;39432;51.902;10.844;2023-08-06T11:21:54;2.30;;;0.90;;
53545;SDS011;39432;51.902;10.844;2023-08-06T11:24:25;2.25;;;0.82;;
53545;SDS011;39432;51.902;10.844;2023-08-06T11:26:58;1.73;;;0.93;;
53545;SDS011;39432;51.902;10.844;2023-08-06T11:29:28;0.82;;;0.70;;
53545;SDS011;39432;51.902;10.844;2023-08-06T11:32:02;1.60;;;0.70;;
53545;SDS011;39432;51.902;10.844;2023-08-06T11:34:33;1.45;;;0.80;;
53545;SDS011;39432;51.902;10.844;2023-08-06T11:37:03;3.13;;;0.85;;
53545;SDS011;39432;51.902;10.844;2023-08-06T11:39:34;3.72;;;1.00;;
53545;SDS011;39432;51.902;10.844;2023-08-06T11:42:08;1.20;;;0.80;;
53545;SDS011;39432;51.902;10.844;2023-08-06T11:44:38;2.63;;;0.82;;
53545;SDS011;39432;51.902;10.844;2023-08-06T11:47:12;1.23;;;0.80;;
53545;SDS011;39432;51.902;10.844;2023-08-06T11:49:44;1.35;;;0.90;;
53545;SDS011;39432;51.902;10.844;2023-08-06T11:52:19;2.33;;;1.17;;
53545;SDS011;39432;51.902;10.844;2023-08-06T11:55:00;1.40;;;0.80;;
53545;SDS011;39432;51.902;10.844;2023-08-06T11:57:36;2.53;;;0.90;;
53545;SDS011;39432;51.902;10.844;2023-08-06T12:00:07;1.63;;;0.90;;
53545;SDS011;39432;51.902;10.844;2023-08-06T12:02:42;3.92;;;1.08;;
53545;SDS011;39432;51.902;10.844;2023-08-06T12:05:14;1.52;;;0.90;;
53545;SDS011;39432;51.902;10.844;2023-08-06T12:07:47;3.88;;;1.05;;
53545;SDS011;39432;51.902;10.844;2023-08-06T12:10:19;1.73;;;0.80;;
53545;SDS011;39432;51.902;10.844;2023-08-06T12:12:53;2.20;;;0.93;;
53545;SDS011;39432;51.902;10.844;2023-08-06T12:15:23;4.18;;;1.58;;
53545;SDS011;39432;51.902;10.844;2023-08-06T12:17:56;1.92;;;1.10;;
53545;SDS011;39432;51.902;10.844;2023-08-06T12:20:26;1.33;;;0.80;;
53545;SDS011;39432;51.902;10.844;2023-08-06T12:22:56;1.52;;;0.80;;
53545;SDS011;39432;51.902;10.844;2023-08-06T12:25:26;2.25;;;1.00;;
53545;SDS011;39432;51.902;10.844;2023-08-06T12:27:59;4.80;;;1.13;;
53545;SDS011;39432;51.902;10.844;2023-08-06T12:30:29;6.10;;;1.08;;
53545;SDS011;39432;51.902;10.844;2023-08-06T12:32:59;1.85;;;0.82;;
53545;SDS011;39432;51.902;10.844;2023-08-06T12:35:29;1.63;;;0.80;;
53545;SDS011;39432;51.902;10.844;2023-08-06T12:37:59;1.63;;;0.80;;
53545;SDS011;39432;51.902;10.844;2023-08-06T12:40:29;1.77;;;0.80;;
53545;SDS011;39432;51.902;10.844;2023-08-06T12:45:37;1.92;;;1.02;;
53545;SDS011;39432;51.902;10.844;2023-08-06T12:48:07;1.10;;;0.68;;
53545;SDS011;39432;51.902;10.844;2023-08-06T12:50:37;1.20;;;0.82;;
53545;SDS011;39432;51.902;10.844;2023-08-06T12:53:07;1.45;;;0.90;;
53545;SDS011;39432;51.902;10.844;2023-08-06T12:55:37;2.08;;;1.00;;
53545;SDS011;39432;51.902;10.844;2023-08-06T12:58:10;2.38;;;1.00;;
53545;SDS011;39432;51.902;10.844;2023-08-06T13:00:40;1.30;;;0.98;;
53545;SDS011;39432;51.902;10.844;2023-08-06T13:03:10;1.20;;;0.70;;
53545;SDS011;39432;51.902;10.844;2023-08-06T13:05:40;1.50;;;0.90;;
53545;SDS011;39432;51.902;10.844;2023-08-06T13:08:10;1.13;;;0.80;;
53545;SDS011;39432;51.902;10.844;2023-08-06T13:10:41;1.33;;;0.75;;
53545;SDS011;39432;51.902;10.844;2023-08-06T13:13:13;2.42;;;0.90;;
53545;SDS011;39432;51.902;10.844;2023-08-06T13:15:43;3.25;;;1.02;;
53545;SDS011;39432;51.902;10.844;2023-08-06T13:18:13;1.42;;;0.90;;
53545;SDS011;39432;51.902;10.844;2023-08-06T13:20:43;3.20;;;0.90;;
53545;SDS011;39432;51.902;10.844;2023-08-06T13:23:13;1.48;;;0.80;;
53545;SDS011;39432;51.902;10.844;2023-08-06T13:25:43;1.55;;;0.80;;
53545;SDS011;39432;51.902;10.844;2023-08-06T13:28:16;1.38;;;0.80;;
53545;SDS011;39432;51.902;10.844;2023-08-06T13:30:46;0.55;;;0.50;;
53545;SDS011;39432;51.902;10.844;2023-08-06T13:33:16;0.95;;;0.70;;
53545;SDS011;39432;51.902;10.844;2023-08-06T13:35:46;1.55;;;0.80;;
53545;SDS011;39432;51.902;10.844;2023-08-06T13:38:17;1.83;;;0.80;;
53545;SDS011;39432;51.902;10.844;2023-08-06T13:40:47;2.08;;;0.88;;
53545;SDS011;39432;51.902;10.844;2023-08-06T13:43:20;3.10;;;0.90;;
53545;SDS011;39432;51.902;10.844;2023-08-06T13:45:50;1.92;;;0.90;;
53545;SDS011;39432;51.902;10.844;2023-08-06T13:48:20;1.70;;;0.88;;
53545;SDS011;39432;51.902;10.844;2023-08-06T13:50:50;8.75;;;1.02;;
53545;SDS011;39432;51.902;10.844;2023-08-06T13:53:20;1.48;;;0.90;;
53545;SDS011;39432;51.902;10.844;2023-08-06T13:55:52;2.63;;;1.05;;
53545;SDS011;39432;51.902;10.844;2023-08-06T13:58:24;3.03;;;0.80;;
53545;SDS011;39432;51.902;10.844;2023-08-06T14:00:54;1.10;;;0.70;;
53545;SDS011;39432;51.902;10.844;2023-08-06T14:03:24;1.38;;;0.90;;
53545;SDS011;39432;51.902;10.844;2023-08-06T14:05:55;1.95;;;0.90;;
53545;SDS011;39432;51.902;10.844;2023-08-06T14:08:25;1.65;;;0.85;;
53545;SDS011;39432;51.902;10.844;2023-08-06T14:10:55;2.08;;;0.60;;
53545;SDS011;39432;51.902;10.844;2023-08-06T14:13:28;3.67;;;1.00;;
53545;SDS011;39432;51.902;10.844;2023-08-06T14:15:58;2.00;;;0.70;;
53545;SDS011;39432;51.902;10.844;2023-08-06T14:18:28;1.17;;;0.80;;
53545;SDS011;39432;51.902;10.844;2023-08-06T14:20:58;1.70;;;0.90;;
53545;SDS011;39432;51.902;10.844;2023-08-06T14:23:28;1.92;;;0.95;;
53545;SDS011;39432;51.902;10.844;2023-08-06T14:25:58;1.23;;;0.70;;
53545;SDS011;39432;51.902;10.844;2023-08-06T14:28:30;1.70;;;0.80;;
53545;SDS011;39432;51.902;10.844;2023-08-06T14:31:00;2.60;;;0.75;;
53545;SDS011;39432;51.902;10.844;2023-08-06T14:33:30;2.05;;;0.93;;
53545;SDS011;39432;51.902;10.844;2023-08-06T14:36:00;2.03;;;0.85;;
53545;SDS011;39432;51.902;10.844;2023-08-06T14:38:30;1.42;;;0.77;;
53545;SDS011;39432;51.902;10.844;2023-08-06T14:41:12;1.17;;;0.70;;
53545;SDS011;39432;51.902;10.844;2023-08-06T14:43:44;1.65;;;0.80;;
53545;SDS011;39432;51.902;10.844;2023-08-06T14:46:14;2.17;;;0.70;;
53545;SDS011;39432;51.902;10.844;2023-08-06T14:48:44;2.22;;;0.85;;
53545;SDS011;39432;51.902;10.844;2023-08-06T14:51:14;0.90;;;0.60;;
53545;SDS011;39432;51.902;10.844;2023-08-06T14:53:46;1.30;;;0.73;;
53545;SDS011;39432;51.902;10.844;2023-08-06T14:56:16;1.80;;;0.75;;
53545;SDS011;39432;51.902;10.844;2023-08-06T14:58:49;1.75;;;0.80;;
53545;SDS011;39432;51.902;10.844;2023-08-06T15:01:18;1.42;;;0.90;;
53545;SDS011;39432;51.902;10.844;2023-08-06T15:03:48;2.70;;;1.08;;